createdAt,value
2023-03-15T00:00:27.409Z,101002.28
2023-03-15T00:03:18.261Z,101000.13
2023-03-15T00:06:08.376Z,101022.88
2023-03-15T00:08:57.720Z,101033.69
2023-03-15T00:11:47.429Z,101031.53
2023-03-15T00:14:38.175Z,101036.38
2023-03-15T00:17:27.605Z,101041.28
2023-03-15T00:20:19.493Z,101041.22
2023-03-15T00:23:09.635Z,101045.00
2023-03-15T00:25:59.141Z,101048.22
2023-03-15T00:28:48.396Z,101034.66
2023-03-15T00:31:37.563Z,101031.75
2023-03-15T00:34:27.122Z,101027.13
2023-03-15T00:37:19.754Z,101025.75
2023-03-15T00:40:12.316Z,101031.47
2023-03-15T00:43:01.480Z,101029.03
2023-03-15T00:45:51.412Z,101021.44
2023-03-15T00:48:41.213Z,101021.72
2023-03-15T00:51:32.022Z,101011.88
2023-03-15T00:54:23.890Z,101024.09
2023-03-15T00:57:13.543Z,101030.31
2023-03-15T01:00:09.406Z,101021.91
2023-03-15T01:02:59.035Z,101020.78
2023-03-15T01:05:48.440Z,101024.00
2023-03-15T01:08:38.076Z,101017.50
2023-03-15T01:11:30.084Z,101023.13
2023-03-15T01:14:20.453Z,101028.81
2023-03-15T01:17:09.942Z,101025.78
2023-03-15T01:20:00.040Z,101030.84
2023-03-15T01:22:49.679Z,101035.50
2023-03-15T01:25:38.872Z,101034.94
2023-03-15T01:28:29.805Z,101034.09
2023-03-15T01:31:22.663Z,101036.44
2023-03-15T01:34:12.317Z,101031.78
2023-03-15T01:37:02.935Z,101036.13
2023-03-15T01:40:01.729Z,101029.88
2023-03-15T01:43:15.869Z,101029.41
2023-03-15T01:46:34.876Z,101024.75
2023-03-15T01:49:35.363Z,101028.25
2023-03-15T01:52:31.552Z,101022.91
2023-03-15T01:55:24.225Z,101027.78
2023-03-15T01:58:28.673Z,101034.28
2023-03-15T02:01:21.663Z,101045.09
2023-03-15T02:04:15.581Z,101050.22
2023-03-15T02:07:09.733Z,101045.50
2023-03-15T02:10:05.582Z,101052.03
2023-03-15T02:12:59.549Z,101033.94
2023-03-15T02:15:49.714Z,101041.53
2023-03-15T02:18:48.233Z,101038.88
2023-03-15T02:21:51.718Z,101037.53
2023-03-15T02:24:49.161Z,101031.63
2023-03-15T02:27:42.158Z,101029.47
2023-03-15T02:30:31.572Z,101009.41
2023-03-15T02:33:25.309Z,101024.16
2023-03-15T02:36:21.770Z,101011.44
2023-03-15T02:39:19.631Z,100999.53
2023-03-15T02:42:09.841Z,101002.56
2023-03-15T02:45:00.678Z,101001.25
2023-03-15T02:47:50.872Z,101002.56
2023-03-15T02:50:40.582Z,100990.13
2023-03-15T02:53:31.727Z,100981.41
2023-03-15T02:56:20.924Z,100971.41
2023-03-15T02:59:10.271Z,100976.00
2023-03-15T03:02:01.411Z,100978.16
2023-03-15T03:04:52.748Z,100960.78
2023-03-15T03:07:43.120Z,100967.31
2023-03-15T03:10:32.635Z,100961.88
2023-03-15T03:13:23.512Z,100967.81
2023-03-15T03:16:13.512Z,100960.75
2023-03-15T03:19:06.130Z,100956.47
2023-03-15T03:21:57.591Z,100960.25
2023-03-15T03:24:47.280Z,100953.53
2023-03-15T03:27:38.996Z,100951.94
2023-03-15T03:30:31.259Z,100944.13
2023-03-15T03:33:21.336Z,100935.97
2023-03-15T03:36:13.224Z,100928.72
2023-03-15T03:39:02.912Z,100927.66
2023-03-15T03:41:52.431Z,100922.28
2023-03-15T03:44:41.886Z,100921.47
2023-03-15T03:47:31.360Z,100926.31
2023-03-15T03:50:21.208Z,100928.22
2023-03-15T03:53:12.225Z,100929.56
2023-03-15T03:56:04.218Z,100930.94
2023-03-15T03:58:53.400Z,100928.22
2023-03-15T04:01:48.406Z,100911.19
2023-03-15T04:04:41.351Z,100910.91
2023-03-15T04:07:36.152Z,100912.81
2023-03-15T04:10:27.903Z,100913.88
2023-03-15T04:13:17.660Z,100920.38
2023-03-15T04:16:08.485Z,100918.75
2023-03-15T04:19:14.095Z,100915.50
2023-03-15T04:22:06.801Z,100915.78
2023-03-15T04:25:12.823Z,100917.69
2023-03-15T04:28:14.536Z,100920.38
2023-03-15T04:31:27.363Z,100908.47
2023-03-15T04:34:38.892Z,100908.78
2023-03-15T04:37:48.306Z,100914.47
2023-03-15T04:40:52.061Z,100914.22
2023-03-15T04:43:49.579Z,100917.22
2023-03-15T04:46:58.266Z,100909.59
2023-03-15T04:50:04.599Z,100900.94
2023-03-15T04:53:07.988Z,100916.69
2023-03-15T04:56:17.651Z,100911.81
2023-03-15T04:59:39.204Z,100910.50
2023-03-15T05:02:52.236Z,100906.13
2023-03-15T05:06:08.169Z,100914.53
2023-03-15T05:09:19.317Z,100909.94
2023-03-15T05:12:47.364Z,100909.69
2023-03-15T05:15:47.271Z,100902.06
2023-03-15T05:18:57.318Z,100912.94
2023-03-15T05:22:09.725Z,100907.25
2023-03-15T05:25:25.583Z,100906.97
2023-03-15T05:28:34.925Z,100900.47
2023-03-15T05:31:37.216Z,100901.56
2023-03-15T05:34:29.801Z,100892.38
2023-03-15T05:37:24.974Z,100867.44
2023-03-15T05:40:45.105Z,100897.53
2023-03-15T05:43:53.042Z,100888.34
2023-03-15T05:47:03.921Z,100887.56
2023-03-15T05:50:23.297Z,100891.66
2023-03-15T05:53:19.712Z,100891.91
2023-03-15T05:56:26.909Z,100829.53
2023-03-15T05:59:36.010Z,100892.47
2023-03-15T06:02:45.648Z,100891.41
2023-03-15T06:05:53.538Z,100880.31
2023-03-15T06:08:52.333Z,100878.97
2023-03-15T06:11:42.050Z,100871.38
2023-03-15T06:14:35.065Z,100868.41
2023-03-15T06:17:29.497Z,100862.47
2023-03-15T06:20:20.652Z,100865.44
2023-03-15T06:23:10.607Z,100863.28
2023-03-15T06:26:06.994Z,100854.38
2023-03-15T06:28:57.219Z,100850.03
2023-03-15T06:31:48.187Z,100856.53
2023-03-15T06:34:38.347Z,100851.38
2023-03-15T06:37:35.331Z,100849.50
2023-03-15T06:40:25.818Z,100850.31
2023-03-15T06:43:19.628Z,100838.13
2023-03-15T06:46:09.297Z,100844.88
2023-03-15T06:48:58.742Z,100841.06
2023-03-15T06:51:48.939Z,100848.13
2023-03-15T06:54:39.848Z,100841.38
2023-03-15T06:57:29.176Z,100828.66
2023-03-15T07:00:19.695Z,100827.56
2023-03-15T07:03:09.139Z,100816.72
2023-03-15T07:05:58.464Z,100809.66
2023-03-15T07:08:47.870Z,100795.81
2023-03-15T07:11:38.529Z,100811.00
2023-03-15T07:14:27.705Z,100808.00
2023-03-15T07:17:17.140Z,100802.31
2023-03-15T07:20:08.310Z,100791.19
2023-03-15T07:22:57.629Z,100790.38
2023-03-15T07:25:55.081Z,100786.78
2023-03-15T07:28:46.757Z,100786.75
2023-03-15T07:31:36.126Z,100785.59
2023-03-15T07:34:25.388Z,100791.56
2023-03-15T07:37:14.688Z,100785.06
2023-03-15T07:40:09.748Z,100764.47
2023-03-15T07:42:59.068Z,100791.53
2023-03-15T07:45:49.781Z,100789.09
2023-03-15T07:48:38.952Z,100789.84
2023-03-15T07:51:28.184Z,100792.53
2023-03-15T07:54:17.485Z,100789.25
2023-03-15T07:57:07.376Z,100786.25
2023-03-15T07:59:56.528Z,100788.69
2023-03-15T08:02:47.159Z,100788.16
2023-03-15T08:05:36.967Z,100791.09
2023-03-15T08:08:26.364Z,100770.25
2023-03-15T08:11:15.975Z,100782.16
2023-03-15T08:14:05.842Z,100778.34
2023-03-15T08:16:55.267Z,100777.28
2023-03-15T08:19:46.342Z,100781.06
2023-03-15T08:22:38.122Z,100780.00
2023-03-15T08:25:27.860Z,100783.78
2023-03-15T08:28:17.197Z,100782.97
2023-03-15T08:31:09.044Z,100768.34
2023-03-15T08:33:59.013Z,100774.59
2023-03-15T08:36:50.290Z,100772.69
2023-03-15T08:39:39.755Z,100761.03
2023-03-15T08:42:29.387Z,100773.00
2023-03-15T08:45:18.804Z,100769.50
2023-03-15T08:48:08.345Z,100768.09
2023-03-15T08:51:03.333Z,100765.41
2023-03-15T08:53:54.494Z,100759.19
2023-03-15T08:56:44.630Z,100748.00
2023-03-15T08:59:33.945Z,100755.28
2023-03-15T09:02:23.696Z,100743.94
2023-03-15T09:05:13.006Z,100757.19
2023-03-15T09:08:02.358Z,100747.16
2023-03-15T09:10:56.801Z,100746.31
2023-03-15T09:13:46.090Z,100734.06
2023-03-15T09:16:35.525Z,100728.06
2023-03-15T09:19:24.884Z,100729.63
2023-03-15T09:22:16.505Z,100732.88
2023-03-15T09:25:07.256Z,100723.06
2023-03-15T09:27:58.280Z,100726.31
2023-03-15T09:30:47.536Z,100719.47
2023-03-15T09:33:37.210Z,100724.91
2023-03-15T09:36:26.541Z,100722.78
2023-03-15T09:39:15.721Z,100714.63
2023-03-15T09:42:10.543Z,100704.09
2023-03-15T09:45:09.137Z,100713.53
2023-03-15T09:48:09.473Z,100704.81
2023-03-15T09:51:05.843Z,100692.84
2023-03-15T09:54:02.148Z,100689.31
2023-03-15T09:56:58.285Z,100678.19
2023-03-15T09:59:52.305Z,100672.16
2023-03-15T10:02:50.065Z,100662.41
2023-03-15T10:05:43.617Z,100658.28
2023-03-15T10:08:34.438Z,100659.34
2023-03-15T10:11:35.519Z,100653.84
2023-03-15T10:14:40.961Z,100656.03
2023-03-15T10:17:40.894Z,100638.34
2023-03-15T10:20:35.866Z,100644.56
2023-03-15T10:23:37.243Z,100636.06
2023-03-15T10:26:34.268Z,100629.53
2023-03-15T10:29:28.349Z,100619.13
2023-03-15T10:32:20.235Z,100618.53
2023-03-15T10:35:17.236Z,100611.13
2023-03-15T10:38:16.646Z,100616.69
2023-03-15T10:41:08.838Z,100618.75
2023-03-15T10:44:03.222Z,100617.31
2023-03-15T10:47:21.595Z,100601.72
2023-03-15T10:50:19.157Z,100601.50
2023-03-15T10:53:20.878Z,100586.72
2023-03-15T10:56:23.242Z,100595.97
2023-03-15T10:59:20.388Z,100581.00
2023-03-15T11:02:22.759Z,100567.38
2023-03-15T11:05:20.228Z,100563.72
2023-03-15T11:08:16.336Z,100562.59
2023-03-15T11:11:06.425Z,100565.47
2023-03-15T11:14:02.139Z,100552.56
2023-03-15T11:16:55.174Z,100545.41
2023-03-15T11:19:55.376Z,100524.53
2023-03-15T11:22:44.738Z,100533.63
2023-03-15T11:25:35.430Z,100522.06
2023-03-15T11:28:29.353Z,100522.06
2023-03-15T11:31:18.643Z,100507.81
2023-03-15T11:34:13.762Z,100513.25
2023-03-15T11:37:13.097Z,100502.97
2023-03-15T11:40:12.901Z,100494.19
2023-03-15T11:43:10.265Z,100487.44
2023-03-15T11:46:04.786Z,100485.59
2023-03-15T11:49:12.404Z,100476.16
2023-03-15T11:52:01.920Z,100474.53
2023-03-15T11:54:51.970Z,100469.69
2023-03-15T11:57:46.827Z,100460.78
2023-03-15T12:00:57.560Z,100462.53
2023-03-15T12:03:46.930Z,100461.41
2023-03-15T12:06:39.434Z,100450.31
2023-03-15T12:09:52.434Z,100443.88
2023-03-15T12:12:47.861Z,100442.03
2023-03-15T12:15:47.644Z,100439.59
2023-03-15T12:18:46.945Z,100431.16
2023-03-15T12:21:41.470Z,100421.56
2023-03-15T12:24:36.406Z,100432.03
2023-03-15T12:27:29.531Z,100419.81
2023-03-15T12:30:25.101Z,100410.34
2023-03-15T12:33:19.659Z,100405.28
2023-03-15T12:36:18.453Z,100396.59
2023-03-15T12:39:38.348Z,100380.59
2023-03-15T12:43:13.508Z,100373.50
2023-03-15T12:46:02.789Z,100368.69
2023-03-15T12:49:08.231Z,100342.59
2023-03-15T12:52:01.257Z,100345.41
2023-03-15T12:54:56.690Z,100346.44
2023-03-15T12:57:54.152Z,100320.09
2023-03-15T13:00:45.602Z,100324.66
2023-03-15T13:03:37.500Z,100315.72
2023-03-15T13:07:05.447Z,100316.28
2023-03-15T13:10:22.992Z,100282.72
2023-03-15T13:13:35.188Z,100302.72
2023-03-15T13:16:35.701Z,100289.22
2023-03-15T13:19:28.968Z,100298.28
2023-03-15T13:22:33.977Z,100291.28
2023-03-15T13:25:33.672Z,100278.13
2023-03-15T13:28:27.294Z,100276.22
2023-03-15T13:31:24.399Z,100268.69
2023-03-15T13:37:48.559Z,100259.53
2023-03-15T13:40:47.719Z,100247.50
2023-03-15T13:43:40.027Z,100231.59
2023-03-15T13:46:33.290Z,100230.78
2023-03-15T13:49:23.304Z,100220.97
2023-03-15T13:52:14.931Z,100214.84
2023-03-15T13:55:07.074Z,100191.22
2023-03-15T13:58:00.989Z,100203.91
2023-03-15T14:00:50.802Z,100194.91
2023-03-15T14:03:43.400Z,100186.06
2023-03-15T14:06:32.780Z,100177.84
2023-03-15T14:09:28.706Z,100150.56
2023-03-15T14:12:23.962Z,100173.38
2023-03-15T14:15:19.475Z,100171.13
2023-03-15T14:18:20.600Z,100158.59
2023-03-15T14:21:16.931Z,100153.28
2023-03-15T14:24:08.709Z,100144.16
2023-03-15T14:27:01.785Z,100130.63
2023-03-15T14:29:55.732Z,100120.19
2023-03-15T14:32:54.481Z,100125.31
2023-03-15T14:35:46.242Z,100119.25
2023-03-15T14:38:38.304Z,100112.97
2023-03-15T14:41:34.032Z,100109.59
2023-03-15T14:44:23.382Z,100106.84
2023-03-15T14:47:18.141Z,100101.53
2023-03-15T14:50:14.941Z,100095.91
2023-03-15T14:53:07.244Z,100087.72
2023-03-15T14:55:56.495Z,100082.56
2023-03-15T14:58:45.696Z,100072.59
2023-03-15T15:01:36.603Z,100057.31
2023-03-15T15:04:31.095Z,100050.59
2023-03-15T15:07:20.818Z,100057.50
2023-03-15T15:10:12.060Z,100054.91
2023-03-15T15:13:06.329Z,100046.53
2023-03-15T15:15:58.091Z,100025.97
2023-03-15T15:18:47.646Z,100029.66
2023-03-15T15:21:39.200Z,100026.44
2023-03-15T15:24:28.849Z,100029.94
2023-03-15T15:27:18.193Z,100021.56
2023-03-15T15:30:16.197Z,100018.84
2023-03-15T15:33:06.003Z,100011.44
2023-03-15T15:35:58.905Z,100003.25
2023-03-15T15:38:49.923Z,99987.16
2023-03-15T15:41:39.246Z,99994.38
2023-03-15T15:44:28.524Z,99991.03
2023-03-15T15:47:17.784Z,99983.31
2023-03-15T15:50:08.129Z,99966.91
2023-03-15T15:52:57.384Z,99969.00
2023-03-15T15:55:48.185Z,99958.63
2023-03-15T15:58:37.497Z,99963.06
2023-03-15T16:01:27.246Z,99946.53
2023-03-15T16:04:17.216Z,99934.31
2023-03-15T16:07:08.020Z,99934.16
2023-03-15T16:09:59.501Z,99918.25
2023-03-15T16:12:52.163Z,99905.56
2023-03-15T16:15:41.430Z,99894.78
2023-03-15T16:18:31.315Z,99905.22
2023-03-15T16:21:33.026Z,99908.22
2023-03-15T16:24:27.041Z,99906.63
2023-03-15T16:27:19.314Z,99900.63
2023-03-15T16:30:22.101Z,99883.75
2023-03-15T16:33:16.443Z,99887.63
2023-03-15T16:36:06.380Z,99882.28
2023-03-15T16:38:57.154Z,99884.22
2023-03-15T16:41:47.202Z,99869.44
2023-03-15T16:44:36.968Z,99865.09
2023-03-15T16:47:27.651Z,99870.38
2023-03-15T16:50:17.774Z,99863.44
2023-03-15T16:53:11.217Z,99856.19
2023-03-15T16:56:00.654Z,99856.03
2023-03-15T16:58:54.119Z,99855.84
2023-03-15T17:01:43.472Z,99853.56
2023-03-15T17:04:37.012Z,99849.69
2023-03-15T17:07:32.700Z,99846.97
2023-03-15T17:10:25.761Z,99829.75
2023-03-15T17:13:18.511Z,99834.13
2023-03-15T17:16:11.326Z,99835.72
2023-03-15T17:19:01.606Z,99836.03
2023-03-15T17:21:53.376Z,99822.69
2023-03-15T17:24:42.694Z,99820.13
2023-03-15T17:27:37.098Z,99804.50
2023-03-15T17:30:28.159Z,99792.63
2023-03-15T17:33:17.558Z,99787.28
2023-03-15T17:36:09.904Z,99781.84
2023-03-15T17:39:00.584Z,99787.28
2023-03-15T17:41:50.375Z,99782.63
2023-03-15T17:44:39.753Z,99772.16
2023-03-15T17:47:29.297Z,99782.09
2023-03-15T17:50:19.546Z,99763.59
2023-03-15T17:53:16.961Z,99766.34
2023-03-15T17:56:09.572Z,99763.25
2023-03-15T17:58:58.981Z,99750.63
2023-03-15T18:01:48.975Z,99751.22
2023-03-15T18:04:38.233Z,99761.47
2023-03-15T18:07:29.688Z,99750.19
2023-03-15T18:10:23.901Z,99740.84
2023-03-15T18:13:18.344Z,99737.66
2023-03-15T18:16:08.223Z,99743.25
2023-03-15T18:18:57.649Z,99728.91
2023-03-15T18:21:46.864Z,99732.91
2023-03-15T18:24:36.068Z,99723.28
2023-03-15T18:27:25.342Z,99722.28
2023-03-15T18:30:18.988Z,99728.56
2023-03-15T18:33:08.345Z,99727.09
2023-03-15T18:35:57.707Z,99720.81
2023-03-15T18:38:47.450Z,99716.94
2023-03-15T18:41:36.892Z,99704.75
2023-03-15T18:44:26.161Z,99703.25
2023-03-15T18:47:16.860Z,99707.63
2023-03-15T18:50:10.592Z,99704.66
2023-03-15T18:53:06.175Z,99704.53
2023-03-15T18:55:55.673Z,99713.31
2023-03-15T18:58:45.177Z,99703.06
2023-03-15T19:01:34.483Z,99698.38
2023-03-15T19:04:25.430Z,99703.16
2023-03-15T19:07:14.770Z,99710.03
2023-03-15T19:10:04.333Z,99701.03
2023-03-15T19:12:54.456Z,99704.22
2023-03-15T19:15:44.038Z,99701.03
2023-03-15T19:18:33.987Z,99705.94
2023-03-15T19:21:26.510Z,99704.34
2023-03-15T19:24:15.798Z,99708.69
2023-03-15T19:27:05.168Z,99703.22
2023-03-15T19:29:54.490Z,99691.91
2023-03-15T19:32:44.003Z,99703.44
2023-03-15T19:35:33.784Z,99696.50
2023-03-15T19:38:24.600Z,99696.94
2023-03-15T19:41:13.752Z,99692.16
2023-03-15T19:44:03.168Z,99695.97
2023-03-15T19:46:52.447Z,99693.22
2023-03-15T19:49:41.681Z,99682.06
2023-03-15T19:52:33.249Z,99675.53
2023-03-15T19:55:27.941Z,99674.88
2023-03-15T19:58:19.638Z,99663.47
2023-03-15T20:01:09.207Z,99672.34
2023-03-15T20:03:58.507Z,99679.19
2023-03-15T20:06:47.762Z,99665.50
2023-03-15T20:09:38.963Z,99653.41
2023-03-15T20:12:29.610Z,99664.81
2023-03-15T20:15:21.082Z,99650.31
2023-03-15T20:18:13.109Z,99644.72
2023-03-15T20:21:02.377Z,99645.06
2023-03-15T20:23:52.206Z,99651.56
2023-03-15T20:26:41.526Z,99624.88
2023-03-15T20:29:33.034Z,99648.59
2023-03-15T20:32:22.325Z,99654.19
2023-03-15T20:35:12.416Z,99638.66
2023-03-15T20:38:06.698Z,99628.41
2023-03-15T20:40:56.969Z,99631.44
2023-03-15T20:43:46.646Z,99638.28
2023-03-15T20:46:38.193Z,99631.66
2023-03-15T20:49:29.361Z,99642.47
2023-03-15T20:52:20.088Z,99634.69
2023-03-15T20:55:10.660Z,99633.66
2023-03-15T20:58:00.339Z,99624.50
2023-03-15T21:00:50.870Z,99618.22
2023-03-15T21:03:44.118Z,99600.31
2023-03-15T21:06:33.886Z,99614.91
2023-03-15T21:09:23.216Z,99593.13
2023-03-15T21:12:14.700Z,99598.81
2023-03-15T21:15:06.069Z,99588.19
2023-03-15T21:17:55.539Z,99583.63
2023-03-15T21:20:46.562Z,99582.81
2023-03-15T21:23:36.327Z,99564.84
2023-03-15T21:26:25.533Z,99587.84
2023-03-15T21:29:14.744Z,99592.19
2023-03-15T21:32:05.625Z,99580.25
2023-03-15T21:34:54.816Z,99579.75
2023-03-15T21:37:45.723Z,99576.53
2023-03-15T21:40:35.438Z,99574.16
2023-03-15T21:43:24.774Z,99579.63
2023-03-15T21:46:14.376Z,99557.25
2023-03-15T21:49:04.160Z,99561.72
2023-03-15T21:51:53.405Z,99553.00
2023-03-15T21:54:45.033Z,99540.03
2023-03-15T21:57:34.941Z,99556.22
2023-03-15T22:00:24.869Z,99540.81
2023-03-15T22:03:14.384Z,99546.47
2023-03-15T22:06:04.320Z,99540.66
2023-03-15T22:08:53.729Z,99535.63
2023-03-15T22:11:44.412Z,99530.81
2023-03-15T22:14:33.693Z,99525.91
2023-03-15T22:17:23.003Z,99532.25
2023-03-15T22:20:16.930Z,99528.97
2023-03-15T22:23:06.865Z,99530.94
2023-03-15T22:25:57.289Z,99524.78
2023-03-15T22:28:48.103Z,99524.78
2023-03-15T22:31:38.274Z,99523.13
2023-03-15T22:34:27.676Z,99522.84
2023-03-15T22:37:17.000Z,99512.16
2023-03-15T22:40:07.544Z,99516.22
2023-03-15T22:42:58.429Z,99511.88
2023-03-15T22:45:49.001Z,99509.84
2023-03-15T22:48:38.425Z,99513.13
2023-03-15T22:51:27.849Z,99513.13
2023-03-15T22:54:17.260Z,99515.88
2023-03-15T22:57:06.914Z,99517.09
2023-03-15T22:59:56.424Z,99489.75
2023-03-15T23:02:47.270Z,99498.88
2023-03-15T23:05:36.709Z,99501.19
2023-03-15T23:08:26.886Z,99499.84
2023-03-15T23:11:16.180Z,99501.69
2023-03-15T23:14:05.622Z,99497.56
2023-03-15T23:16:55.037Z,99495.09
2023-03-15T23:19:46.266Z,99490.03
2023-03-15T23:22:36.435Z,99485.09
2023-03-15T23:25:30.014Z,99478.38
2023-03-15T23:28:21.890Z,99490.69
2023-03-15T23:31:11.727Z,99482.09
2023-03-15T23:34:01.032Z,99476.25
2023-03-15T23:36:51.907Z,99474.75
2023-03-15T23:39:41.691Z,99465.63
2023-03-15T23:42:32.724Z,99472.28
2023-03-15T23:45:21.995Z,99474.28
2023-03-15T23:48:12.575Z,99466.78
2023-03-15T23:51:04.030Z,99470.94
2023-03-15T23:53:54.700Z,99473.44
2023-03-15T23:56:43.891Z,99464.84
2023-03-15T23:59:33.067Z,99461.72
